sensor_id;sensor_type;location;lat;lon;timestamp;pressure;altitude;pressure_sealevel;temperature;humidity
8575;BME280;4325;42.520;27.448;2023-05-08T00:02:06;101456.16;;;11.33;100.00
8575;BME280;4325;42.520;27.448;2023-05-08T00:04:32;101458.34;;;11.31;100.00
8575;BME280;4325;42.520;27.448;2023-05-08T00:06:59;101450.63;;;11.28;100.00
8575;BME280;4325;42.520;27.448;2023-05-08T00:09:26;101447.31;;;11.26;100.00
8575;BME280;4325;42.520;27.448;2023-05-08T00:11:55;101450.06;;;11.26;100.00
8575;BME280;4325;42.520;27.448;2023-05-08T00:14:22;101445.53;;;11.15;100.00
8575;BME280;4325;42.520;27.448;2023-05-08T00:16:48;101458.13;;;11.11;100.00
8575;BME280;4325;42.520;27.448;2023-05-08T00:19:15;101449.88;;;11.11;100.00
8575;BME280;4325;42.520;27.448;2023-05-08T00:21:42;101452.31;;;11.07;100.00
8575;BME280;4325;42.520;27.448;2023-05-08T00:24:09;101460.78;;;11.06;100.00
8575;BME280;4325;42.520;27.448;2023-05-08T00:26:36;101450.03;;;10.99;100.00
8575;BME280;4325;42.520;27.448;2023-05-08T00:29:04;101451.44;;;11.02;100.00
8575;BME280;4325;42.520;27.448;2023-05-08T00:31:31;101450.22;;;10.93;100.00
8575;BME280;4325;42.520;27.448;2023-05-08T00:33:58;101454.91;;;10.92;100.00
8575;BME280;4325;42.520;27.448;2023-05-08T00:36:25;101441.13;;;10.87;100.00
8575;BME280;4325;42.520;27.448;2023-05-08T00:38:52;101442.41;;;10.80;100.00
8575;BME280;4325;42.520;27.448;2023-05-08T00:41:19;101445.28;;;10.90;100.00
8575;BME280;4325;42.520;27.448;2023-05-08T00:43:46;101443.72;;;10.99;100.00
8575;BME280;4325;42.520;27.448;2023-05-08T00:46:15;101436.13;;;11.06;100.00
8575;BME280;4325;42.520;27.448;2023-05-08T00:48:42;101444.28;;;11.01;100.00
8575;BME280;4325;42.520;27.448;2023-05-08T00:51:10;101443.78;;;11.04;100.00
8575;BME280;4325;42.520;27.448;2023-05-08T00:53:38;101440.47;;;11.02;100.00
8575;BME280;4325;42.520;27.448;2023-05-08T00:56:09;101448.16;;;11.05;100.00
8575;BME280;4325;42.520;27.448;2023-05-08T00:58:37;101454.19;;;11.02;100.00
8575;BME280;4325;42.520;27.448;2023-05-08T01:01:04;101452.00;;;11.04;100.00
8575;BME280;4325;42.520;27.448;2023-05-08T01:03:34;101450.09;;;11.04;100.00
8575;BME280;4325;42.520;27.448;2023-05-08T01:06:02;101450.91;;;11.05;100.00
8575;BME280;4325;42.520;27.448;2023-05-08T01:08:29;101453.84;;;10.98;100.00
8575;BME280;4325;42.520;27.448;2023-05-08T01:11:05;101455.19;;;10.96;100.00
8575;BME280;4325;42.520;27.448;2023-05-08T01:13:45;101460.16;;;10.99;100.00
8575;BME280;4325;42.520;27.448;2023-05-08T01:16:16;101456.09;;;11.01;100.00
8575;BME280;4325;42.520;27.448;2023-05-08T01:18:52;101459.13;;;11.05;100.00
8575;BME280;4325;42.520;27.448;2023-05-08T01:21:26;101450.56;;;10.96;100.00
8575;BME280;4325;42.520;27.448;2023-05-08T01:24:18;101462.00;;;10.93;100.00
8575;BME280;4325;42.520;27.448;2023-05-08T01:32:56;101454.31;;;10.69;100.00
8575;BME280;4325;42.520;27.448;2023-05-08T01:35:30;101453.63;;;10.56;100.00
8575;BME280;4325;42.520;27.448;2023-05-08T01:38:05;101455.22;;;10.52;100.00
8575;BME280;4325;42.520;27.448;2023-05-08T01:40:36;101454.66;;;10.50;100.00
8575;BME280;4325;42.520;27.448;2023-05-08T01:43:17;101455.72;;;10.49;100.00
8575;BME280;4325;42.520;27.448;2023-05-08T01:45:47;101457.66;;;10.32;100.00
8575;BME280;4325;42.520;27.448;2023-05-08T01:48:24;101454.44;;;10.35;100.00
8575;BME280;4325;42.520;27.448;2023-05-08T01:50:55;101460.41;;;10.32;100.00
8575;BME280;4325;42.520;27.448;2023-05-08T01:53:27;101459.63;;;10.37;100.00
8575;BME280;4325;42.520;27.448;2023-05-08T01:55:57;101463.22;;;10.37;100.00
8575;BME280;4325;42.520;27.448;2023-05-08T01:58:26;101457.09;;;10.30;100.00
8575;BME280;4325;42.520;27.448;2023-05-08T02:00:55;101459.13;;;10.18;100.00
8575;BME280;4325;42.520;27.448;2023-05-08T02:03:26;101463.91;;;10.11;100.00
8575;BME280;4325;42.520;27.448;2023-05-08T02:05:56;101460.31;;;10.11;100.00
8575;BME280;4325;42.520;27.448;2023-05-08T02:08:25;101471.13;;;10.01;100.00
8575;BME280;4325;42.520;27.448;2023-05-08T02:10:55;101464.34;;;9.86;100.00
8575;BME280;4325;42.520;27.448;2023-05-08T02:13:23;101459.78;;;9.92;100.00
8575;BME280;4325;42.520;27.448;2023-05-08T02:15:53;101463.56;;;9.91;100.00
8575;BME280;4325;42.520;27.448;2023-05-08T02:18:23;101463.56;;;9.91;100.00
8575;BME280;4325;42.520;27.448;2023-05-08T02:20:52;101456.31;;;9.80;100.00
8575;BME280;4325;42.520;27.448;2023-05-08T02:23:22;101465.75;;;9.89;100.00
8575;BME280;4325;42.520;27.448;2023-05-08T02:25:51;101461.41;;;9.93;100.00
8575;BME280;4325;42.520;27.448;2023-05-08T02:28:20;101462.50;;;9.92;100.00
8575;BME280;4325;42.520;27.448;2023-05-08T02:30:49;101469.41;;;9.94;100.00
8575;BME280;4325;42.520;27.448;2023-05-08T02:33:17;101470.22;;;9.95;100.00
8575;BME280;4325;42.520;27.448;2023-05-08T02:35:46;101462.25;;;9.93;100.00
8575;BME280;4325;42.520;27.448;2023-05-08T02:38:18;101465.66;;;9.84;100.00
8575;BME280;4325;42.520;27.448;2023-05-08T02:40:48;101468.56;;;9.77;100.00
8575;BME280;4325;42.520;27.448;2023-05-08T02:43:16;101470.28;;;9.83;100.00
8575;BME280;4325;42.520;27.448;2023-05-08T02:45:47;101467.91;;;9.87;100.00
8575;BME280;4325;42.520;27.448;2023-05-08T02:48:21;101458.63;;;9.88;100.00
8575;BME280;4325;42.520;27.448;2023-05-08T02:50:53;101453.72;;;9.90;100.00
8575;BME280;4325;42.520;27.448;2023-05-08T02:53:31;101455.06;;;9.87;100.00
8575;BME280;4325;42.520;27.448;2023-05-08T02:56:06;101451.81;;;9.90;100.00
8575;BME280;4325;42.520;27.448;2023-05-08T02:58:40;101449.50;;;9.99;100.00
8575;BME280;4325;42.520;27.448;2023-05-08T03:01:26;101453.28;;;9.98;100.00
8575;BME280;4325;42.520;27.448;2023-05-08T03:03:59;101448.91;;;9.97;100.00
8575;BME280;4325;42.520;27.448;2023-05-08T03:06:32;101449.69;;;9.92;100.00
8575;BME280;4325;42.520;27.448;2023-05-08T03:09:04;101456.78;;;9.93;100.00
8575;BME280;4325;42.520;27.448;2023-05-08T03:11:38;101455.94;;;9.43;100.00
8575;BME280;4325;42.520;27.448;2023-05-08T03:14:09;101449.31;;;9.39;100.00
8575;BME280;4325;42.520;27.448;2023-05-08T03:16:38;101452.78;;;9.35;100.00
8575;BME280;4325;42.520;27.448;2023-05-08T03:19:13;101452.78;;;9.35;100.00
8575;BME280;4325;42.520;27.448;2023-05-08T03:21:42;101459.78;;;9.59;100.00
8575;BME280;4325;42.520;27.448;2023-05-08T03:24:14;101461.50;;;9.48;100.00
8575;BME280;4325;42.520;27.448;2023-05-08T03:26:43;101468.38;;;9.84;100.00
8575;BME280;4325;42.520;27.448;2023-05-08T03:29:12;101465.34;;;9.80;100.00
8575;BME280;4325;42.520;27.448;2023-05-08T03:31:40;101463.59;;;9.74;100.00
8575;BME280;4325;42.520;27.448;2023-05-08T03:34:08;101473.88;;;9.84;100.00
8575;BME280;4325;42.520;27.448;2023-05-08T03:36:37;101472.31;;;9.88;100.00
8575;BME280;4325;42.520;27.448;2023-05-08T03:39:05;101472.22;;;10.00;100.00
8575;BME280;4325;42.520;27.448;2023-05-08T03:41:34;101477.00;;;10.09;100.00
8575;BME280;4325;42.520;27.448;2023-05-08T03:44:01;101478.66;;;10.10;100.00
8575;BME280;4325;42.520;27.448;2023-05-08T03:46:30;101471.47;;;10.21;100.00
8575;BME280;4325;42.520;27.448;2023-05-08T03:48:57;101474.53;;;10.24;100.00
8575;BME280;4325;42.520;27.448;2023-05-08T03:51:26;101471.81;;;10.24;100.00
8575;BME280;4325;42.520;27.448;2023-05-08T03:53:53;101476.66;;;10.22;100.00
8575;BME280;4325;42.520;27.448;2023-05-08T03:56:20;101472.09;;;10.28;100.00
8575;BME280;4325;42.520;27.448;2023-05-08T03:58:53;101476.44;;;10.24;100.00
8575;BME280;4325;42.520;27.448;2023-05-08T04:01:24;101472.78;;;10.18;100.00
8575;BME280;4325;42.520;27.448;2023-05-08T04:03:54;101469.56;;;10.21;100.00
8575;BME280;4325;42.520;27.448;2023-05-08T04:06:28;101464.38;;;10.41;100.00
8575;BME280;4325;42.520;27.448;2023-05-08T04:09:02;101464.88;;;10.38;100.00
8575;BME280;4325;42.520;27.448;2023-05-08T04:11:33;101456.16;;;10.41;100.00
8575;BME280;4325;42.520;27.448;2023-05-08T04:14:04;101453.69;;;10.61;100.00
8575;BME280;4325;42.520;27.448;2023-05-08T04:16:51;101459.16;;;10.61;100.00
8575;BME280;4325;42.520;27.448;2023-05-08T04:19:23;101468.19;;;10.84;100.00
8575;BME280;4325;42.520;27.448;2023-05-08T04:21:53;101474.44;;;11.01;100.00
8575;BME280;4325;42.520;27.448;2023-05-08T04:24:21;101468.75;;;11.07;100.00
8575;BME280;4325;42.520;27.448;2023-05-08T04:26:50;101459.50;;;11.13;100.00
8575;BME280;4325;42.520;27.448;2023-05-08T04:29:19;101463.81;;;11.31;100.00
8575;BME280;4325;42.520;27.448;2023-05-08T04:31:47;101456.25;;;11.43;100.00
8575;BME280;4325;42.520;27.448;2023-05-08T04:34:16;101465.16;;;11.55;100.00
8575;BME280;4325;42.520;27.448;2023-05-08T04:36:43;101462.50;;;11.65;100.00
8575;BME280;4325;42.520;27.448;2023-05-08T04:39:10;101465.34;;;11.75;100.00
8575;BME280;4325;42.520;27.448;2023-05-08T04:41:37;101462.41;;;11.82;100.00
8575;BME280;4325;42.520;27.448;2023-05-08T04:44:04;101472.66;;;11.97;100.00
8575;BME280;4325;42.520;27.448;2023-05-08T04:46:32;101465.31;;;12.02;100.00
8575;BME280;4325;42.520;27.448;2023-05-08T04:48:59;101458.44;;;12.05;100.00
8575;BME280;4325;42.520;27.448;2023-05-08T04:51:26;101465.59;;;12.06;100.00
8575;BME280;4325;42.520;27.448;2023-05-08T04:53:53;101461.28;;;12.20;100.00
8575;BME280;4325;42.520;27.448;2023-05-08T04:56:20;101455.84;;;12.30;100.00
8575;BME280;4325;42.520;27.448;2023-05-08T04:58:47;101455.16;;;12.49;100.00
8575;BME280;4325;42.520;27.448;2023-05-08T05:01:15;101461.50;;;12.55;100.00
8575;BME280;4325;42.520;27.448;2023-05-08T05:03:44;101465.34;;;12.54;100.00
8575;BME280;4325;42.520;27.448;2023-05-08T05:06:11;101452.19;;;12.61;100.00
8575;BME280;4325;42.520;27.448;2023-05-08T05:08:37;101452.81;;;12.78;100.00
8575;BME280;4325;42.520;27.448;2023-05-08T05:11:04;101460.56;;;12.91;100.00
8575;BME280;4325;42.520;27.448;2023-05-08T05:13:32;101461.16;;;13.03;100.00
8575;BME280;4325;42.520;27.448;2023-05-08T05:15:59;101462.31;;;13.22;100.00
8575;BME280;4325;42.520;27.448;2023-05-08T05:18:26;101448.59;;;13.33;100.00
8575;BME280;4325;42.520;27.448;2023-05-08T05:20:56;101450.56;;;13.52;100.00
8575;BME280;4325;42.520;27.448;2023-05-08T05:23:23;101444.78;;;13.54;100.00
8575;BME280;4325;42.520;27.448;2023-05-08T05:25:50;101454.94;;;13.63;100.00
8575;BME280;4325;42.520;27.448;2023-05-08T05:28:17;101460.19;;;13.70;100.00
8575;BME280;4325;42.520;27.448;2023-05-08T05:30:45;101456.34;;;13.81;100.00
8575;BME280;4325;42.520;27.448;2023-05-08T05:33:12;101456.88;;;13.88;100.00
8575;BME280;4325;42.520;27.448;2023-05-08T05:35:39;101458.81;;;13.77;100.00
8575;BME280;4325;42.520;27.448;2023-05-08T05:38:07;101464.06;;;13.89;100.00
8575;BME280;4325;42.520;27.448;2023-05-08T05:40:34;101464.00;;;14.14;100.00
8575;BME280;4325;42.520;27.448;2023-05-08T05:43:01;101456.84;;;14.28;100.00
8575;BME280;4325;42.520;27.448;2023-05-08T05:45:28;101459.63;;;14.08;100.00
8575;BME280;4325;42.520;27.448;2023-05-08T05:47:55;101458.22;;;14.26;100.00
8575;BME280;4325;42.520;27.448;2023-05-08T05:50:22;101465.03;;;14.64;100.00
8575;BME280;4325;42.520;27.448;2023-05-08T05:52:49;101460.81;;;14.86;100.00
8575;BME280;4325;42.520;27.448;2023-05-08T05:55:17;101460.97;;;15.10;100.00
8575;BME280;4325;42.520;27.448;2023-05-08T05:57:44;101463.34;;;15.27;100.00
8575;BME280;4325;42.520;27.448;2023-05-08T06:00:12;101461.53;;;15.56;100.00
8575;BME280;4325;42.520;27.448;2023-05-08T06:02:39;101461.53;;;15.90;100.00
8575;BME280;4325;42.520;27.448;2023-05-08T06:05:07;101462.09;;;16.20;100.00
8575;BME280;4325;42.520;27.448;2023-05-08T06:07:34;101465.31;;;16.56;100.00
8575;BME280;4325;42.520;27.448;2023-05-08T06:10:01;101462.66;;;16.93;100.00
8575;BME280;4325;42.520;27.448;2023-05-08T06:12:30;101470.34;;;17.20;98.83
8575;BME280;4325;42.520;27.448;2023-05-08T06:14:57;101468.34;;;17.02;95.09
8575;BME280;4325;42.520;27.448;2023-05-08T06:17:23;101475.69;;;16.69;96.17
8575;BME280;4325;42.520;27.448;2023-05-08T06:19:52;101468.69;;;16.53;97.63
8575;BME280;4325;42.520;27.448;2023-05-08T06:22:21;101468.13;;;16.51;97.89
8575;BME280;4325;42.520;27.448;2023-05-08T06:24:49;101472.25;;;16.77;96.67
8575;BME280;4325;42.520;27.448;2023-05-08T06:27:17;101472.00;;;16.97;94.79
8575;BME280;4325;42.520;27.448;2023-05-08T06:29:46;101467.94;;;17.32;94.64
8575;BME280;4325;42.520;27.448;2023-05-08T06:32:15;101473.34;;;17.42;88.45
8575;BME280;4325;42.520;27.448;2023-05-08T06:34:42;101466.84;;;17.52;86.76
8575;BME280;4325;42.520;27.448;2023-05-08T06:37:09;101467.50;;;17.62;85.22
8575;BME280;4325;42.520;27.448;2023-05-08T06:39:35;101460.53;;;17.65;82.63
8575;BME280;4325;42.520;27.448;2023-05-08T06:42:02;101465.56;;;17.63;85.48
8575;BME280;4325;42.520;27.448;2023-05-08T06:44:31;101459.63;;;17.69;85.35
8575;BME280;4325;42.520;27.448;2023-05-08T06:46:59;101467.88;;;17.56;85.29
8575;BME280;4325;42.520;27.448;2023-05-08T06:49:26;101474.03;;;17.53;84.60
8575;BME280;4325;42.520;27.448;2023-05-08T06:51:53;101470.78;;;17.64;86.14
8575;BME280;4325;42.520;27.448;2023-05-08T06:54:20;101470.34;;;17.57;85.94
8575;BME280;4325;42.520;27.448;2023-05-08T06:56:47;101472.84;;;17.59;86.10
8575;BME280;4325;42.520;27.448;2023-05-08T06:59:13;101463.38;;;17.60;85.15
8575;BME280;4325;42.520;27.448;2023-05-08T07:01:40;101459.72;;;17.64;85.65
8575;BME280;4325;42.520;27.448;2023-05-08T07:04:08;101462.13;;;17.71;85.12
8575;BME280;4325;42.520;27.448;2023-05-08T07:06:35;101460.28;;;17.80;83.34
8575;BME280;4325;42.520;27.448;2023-05-08T07:09:02;101458.69;;;17.93;84.26
8575;BME280;4325;42.520;27.448;2023-05-08T07:11:29;101454.25;;;18.10;80.90
8575;BME280;4325;42.520;27.448;2023-05-08T07:13:56;101460.13;;;18.22;78.68
8575;BME280;4325;42.520;27.448;2023-05-08T07:16:23;101473.47;;;18.34;76.80
8575;BME280;4325;42.520;27.448;2023-05-08T07:18:50;101477.50;;;18.41;71.49
8575;BME280;4325;42.520;27.448;2023-05-08T07:21:18;101478.47;;;18.51;68.92
8575;BME280;4325;42.520;27.448;2023-05-08T07:23:45;101469.03;;;18.52;69.89
8575;BME280;4325;42.520;27.448;2023-05-08T07:26:16;101467.78;;;18.58;71.75
8575;BME280;4325;42.520;27.448;2023-05-08T07:28:42;101465.75;;;18.63;70.88
8575;BME280;4325;42.520;27.448;2023-05-08T07:31:09;101471.06;;;18.60;69.72
8575;BME280;4325;42.520;27.448;2023-05-08T07:33:36;101472.88;;;18.37;68.81
8575;BME280;4325;42.520;27.448;2023-05-08T07:36:04;101468.69;;;18.07;72.33
8575;BME280;4325;42.520;27.448;2023-05-08T07:38:32;101472.16;;;17.99;73.06
8575;BME280;4325;42.520;27.448;2023-05-08T07:40:59;101464.00;;;18.08;73.97
8575;BME280;4325;42.520;27.448;2023-05-08T07:43:26;101462.34;;;18.20;73.83
8575;BME280;4325;42.520;27.448;2023-05-08T07:45:53;101467.34;;;18.37;70.94
8575;BME280;4325;42.520;27.448;2023-05-08T07:48:20;101464.47;;;18.42;73.04
8575;BME280;4325;42.520;27.448;2023-05-08T07:50:48;101462.13;;;18.63;74.02
8575;BME280;4325;42.520;27.448;2023-05-08T07:53:15;101460.47;;;18.89;73.80
8575;BME280;4325;42.520;27.448;2023-05-08T07:55:43;101460.34;;;19.21;73.19
8575;BME280;4325;42.520;27.448;2023-05-08T07:58:10;101453.75;;;19.44;70.66
8575;BME280;4325;42.520;27.448;2023-05-08T08:00:37;101467.00;;;19.69;68.30
8575;BME280;4325;42.520;27.448;2023-05-08T08:03:05;101470.25;;;19.85;65.64
8575;BME280;4325;42.520;27.448;2023-05-08T08:05:33;101463.72;;;19.90;68.20
8575;BME280;4325;42.520;27.448;2023-05-08T08:08:00;101459.66;;;19.96;64.66
8575;BME280;4325;42.520;27.448;2023-05-08T08:10:27;101455.63;;;20.24;64.83
8575;BME280;4325;42.520;27.448;2023-05-08T08:12:55;101459.31;;;20.81;59.87
8575;BME280;4325;42.520;27.448;2023-05-08T08:15:22;101451.25;;;21.79;57.90
8575;BME280;4325;42.520;27.448;2023-05-08T08:17:49;101448.19;;;23.60;51.86
8575;BME280;4325;42.520;27.448;2023-05-08T08:20:16;101428.72;;;25.50;46.05
8575;BME280;4325;42.520;27.448;2023-05-08T08:22:43;101427.31;;;26.74;41.10
8575;BME280;4325;42.520;27.448;2023-05-08T08:25:10;101444.19;;;28.62;38.25
8575;BME280;4325;42.520;27.448;2023-05-08T08:27:37;101424.56;;;30.15;33.59
8575;BME280;4325;42.520;27.448;2023-05-08T08:30:07;101435.69;;;30.78;33.13
8575;BME280;4325;42.520;27.448;2023-05-08T08:32:34;101428.38;;;32.17;31.00
8575;BME280;4325;42.520;27.448;2023-05-08T08:35:01;101437.09;;;33.81;28.61
8575;BME280;4325;42.520;27.448;2023-05-08T08:37:28;101434.19;;;35.43;26.23
8575;BME280;4325;42.520;27.448;2023-05-08T08:39:55;101437.50;;;36.05;24.54
8575;BME280;4325;42.520;27.448;2023-05-08T08:42:21;101428.31;;;36.21;24.44
8575;BME280;4325;42.520;27.448;2023-05-08T08:44:49;101422.84;;;36.30;24.35
8575;BME280;4325;42.520;27.448;2023-05-08T08:47:18;101425.66;;;35.76;25.74
8575;BME280;4325;42.520;27.448;2023-05-08T08:49:50;101431.38;;;36.33;24.75
8575;BME280;4325;42.520;27.448;2023-05-08T08:52:26;101434.78;;;37.21;24.77
8575;BME280;4325;42.520;27.448;2023-05-08T08:54:57;101433.00;;;37.27;24.85
8575;BME280;4325;42.520;27.448;2023-05-08T08:57:26;101432.84;;;37.34;24.97
8575;BME280;4325;42.520;27.448;2023-05-08T08:59:54;101427.25;;;38.42;24.23
8575;BME280;4325;42.520;27.448;2023-05-08T09:02:26;101432.56;;;38.91;23.53
8575;BME280;4325;42.520;27.448;2023-05-08T09:04:54;101432.94;;;37.31;24.74
8575;BME280;4325;42.520;27.448;2023-05-08T09:07:21;101424.91;;;36.29;25.58
8575;BME280;4325;42.520;27.448;2023-05-08T09:09:49;101421.81;;;35.23;27.45
8575;BME280;4325;42.520;27.448;2023-05-08T09:12:17;101419.78;;;35.23;27.85
8575;BME280;4325;42.520;27.448;2023-05-08T09:14:44;101424.03;;;36.32;26.51
8575;BME280;4325;42.520;27.448;2023-05-08T09:17:11;101423.53;;;34.72;27.67
8575;BME280;4325;42.520;27.448;2023-05-08T09:19:40;101427.00;;;34.42;28.71
8575;BME280;4325;42.520;27.448;2023-05-08T09:22:08;101414.44;;;35.29;27.69
8575;BME280;4325;42.520;27.448;2023-05-08T09:24:54;101409.84;;;34.53;27.94
8575;BME280;4325;42.520;27.448;2023-05-08T09:27:21;101405.25;;;35.78;27.27
8575;BME280;4325;42.520;27.448;2023-05-08T09:30:00;101404.56;;;36.01;26.85
8575;BME280;4325;42.520;27.448;2023-05-08T09:32:29;101399.53;;;37.28;25.63
8575;BME280;4325;42.520;27.448;2023-05-08T09:34:57;101387.16;;;37.34;24.95
8575;BME280;4325;42.520;27.448;2023-05-08T09:37:25;101393.50;;;37.02;25.74
8575;BME280;4325;42.520;27.448;2023-05-08T09:39:52;101390.09;;;38.06;24.22
8575;BME280;4325;42.520;27.448;2023-05-08T09:42:19;101385.19;;;38.06;24.45
8575;BME280;4325;42.520;27.448;2023-05-08T09:44:49;101385.75;;;38.66;24.14
8575;BME280;4325;42.520;27.448;2023-05-08T09:47:17;101379.72;;;38.12;24.58
8575;BME280;4325;42.520;27.448;2023-05-08T09:49:59;101377.28;;;38.78;23.43
8575;BME280;4325;42.520;27.448;2023-05-08T09:52:27;101384.97;;;38.33;24.19
8575;BME280;4325;42.520;27.448;2023-05-08T09:54:57;101384.28;;;36.72;25.44
8575;BME280;4325;42.520;27.448;2023-05-08T09:57:25;101393.88;;;36.08;25.44
8575;BME280;4325;42.520;27.448;2023-05-08T09:59:59;101382.44;;;35.82;26.70
8575;BME280;4325;42.520;27.448;2023-05-08T10:02:27;101383.84;;;36.96;25.29
8575;BME280;4325;42.520;27.448;2023-05-08T10:04:54;101381.59;;;38.02;24.13
8575;BME280;4325;42.520;27.448;2023-05-08T10:07:31;101386.22;;;38.48;22.96
8575;BME280;4325;42.520;27.448;2023-05-08T10:10:00;101380.03;;;38.33;23.02
8575;BME280;4325;42.520;27.448;2023-05-08T10:12:27;101378.44;;;38.33;22.67
8575;BME280;4325;42.520;27.448;2023-05-08T10:14:55;101383.09;;;36.92;24.41
8575;BME280;4325;42.520;27.448;2023-05-08T10:17:26;101388.91;;;36.85;24.93
8575;BME280;4325;42.520;27.448;2023-05-08T10:19:58;101389.88;;;37.61;24.06
8575;BME280;4325;42.520;27.448;2023-05-08T10:22:27;101375.13;;;38.66;22.88
8575;BME280;4325;42.520;27.448;2023-05-08T10:24:57;101386.28;;;38.93;23.28
8575;BME280;4325;42.520;27.448;2023-05-08T10:27:31;101383.50;;;40.01;22.12
8575;BME280;4325;42.520;27.448;2023-05-08T10:30:03;101377.22;;;40.06;21.54
8575;BME280;4325;42.520;27.448;2023-05-08T10:32:36;101378.44;;;39.26;22.33
8575;BME280;4325;42.520;27.448;2023-05-08T10:35:07;101379.94;;;38.53;23.09
8575;BME280;4325;42.520;27.448;2023-05-08T10:37:36;101379.38;;;37.94;23.58
8575;BME280;4325;42.520;27.448;2023-05-08T10:40:06;101375.41;;;37.88;23.72
8575;BME280;4325;42.520;27.448;2023-05-08T10:42:34;101371.84;;;38.00;23.21
8575;BME280;4325;42.520;27.448;2023-05-08T10:45:03;101365.97;;;38.07;23.04
8575;BME280;4325;42.520;27.448;2023-05-08T10:47:40;101376.19;;;38.56;23.18
8575;BME280;4325;42.520;27.448;2023-05-08T10:50:21;101362.13;;;39.89;22.02
8575;BME280;4325;42.520;27.448;2023-05-08T10:52:58;101368.22;;;40.42;21.15
8575;BME280;4325;42.520;27.448;2023-05-08T10:55:31;101371.41;;;39.27;21.97
8575;BME280;4325;42.520;27.448;2023-05-08T10:58:08;101359.28;;;38.46;22.80
8575;BME280;4325;42.520;27.448;2023-05-08T11:01:10;101365.28;;;38.67;22.57
8575;BME280;4325;42.520;27.448;2023-05-08T11:03:38;101365.75;;;38.94;22.40
8575;BME280;4325;42.520;27.448;2023-05-08T11:06:06;101374.31;;;39.11;22.08
8575;BME280;4325;42.520;27.448;2023-05-08T11:08:42;101364.94;;;38.33;22.66
8575;BME280;4325;42.520;27.448;2023-05-08T11:11:16;101362.22;;;37.38;24.57
8575;BME280;4325;42.520;27.448;2023-05-08T11:13:49;101375.38;;;37.52;24.40
8575;BME280;4325;42.520;27.448;2023-05-08T11:16:19;101369.19;;;37.73;23.91
8575;BME280;4325;42.520;27.448;2023-05-08T11:19:15;101360.00;;;37.26;23.84
8575;BME280;4325;42.520;27.448;2023-05-08T11:22:13;101359.53;;;36.15;25.28
8575;BME280;4325;42.520;27.448;2023-05-08T11:24:47;101345.69;;;36.40;24.79
8575;BME280;4325;42.520;27.448;2023-05-08T11:27:16;101342.72;;;37.14;24.51
8575;BME280;4325;42.520;27.448;2023-05-08T11:29:43;101339.75;;;37.37;23.50
8575;BME280;4325;42.520;27.448;2023-05-08T11:32:10;101340.88;;;37.23;24.10
8575;BME280;4325;42.520;27.448;2023-05-08T11:34:46;101347.63;;;37.52;23.77
8575;BME280;4325;42.520;27.448;2023-05-08T11:37:17;101344.28;;;36.95;24.91
8575;BME280;4325;42.520;27.448;2023-05-08T11:39:45;101344.59;;;37.00;24.88
8575;BME280;4325;42.520;27.448;2023-05-08T11:42:34;101342.44;;;35.58;25.62
8575;BME280;4325;42.520;27.448;2023-05-08T11:45:03;101338.63;;;35.99;25.86
8575;BME280;4325;42.520;27.448;2023-05-08T11:47:36;101340.38;;;35.62;25.95
8575;BME280;4325;42.520;27.448;2023-05-08T11:50:04;101332.72;;;33.93;27.62
8575;BME280;4325;42.520;27.448;2023-05-08T11:52:31;101326.31;;;32.45;29.59
8575;BME280;4325;42.520;27.448;2023-05-08T11:55:02;101329.97;;;32.21;30.65
8575;BME280;4325;42.520;27.448;2023-05-08T11:57:30;101328.63;;;31.55;32.39
8575;BME280;4325;42.520;27.448;2023-05-08T12:00:03;101329.78;;;31.37;32.01
8575;BME280;4325;42.520;27.448;2023-05-08T12:02:37;101312.28;;;31.10;33.10
8575;BME280;4325;42.520;27.448;2023-05-08T12:05:04;101317.22;;;30.62;33.64
8575;BME280;4325;42.520;27.448;2023-05-08T12:07:31;101317.97;;;31.27;33.03
8575;BME280;4325;42.520;27.448;2023-05-08T12:10:00;101316.22;;;30.91;33.50
8575;BME280;4325;42.520;27.448;2023-05-08T12:12:37;101316.09;;;30.23;34.73
8575;BME280;4325;42.520;27.448;2023-05-08T12:15:10;101317.56;;;30.57;34.50
8575;BME280;4325;42.520;27.448;2023-05-08T12:17:37;101310.81;;;30.18;35.10
8575;BME280;4325;42.520;27.448;2023-05-08T12:20:12;101305.78;;;29.60;36.11
8575;BME280;4325;42.520;27.448;2023-05-08T12:22:39;101306.28;;;28.50;37.91
8575;BME280;4325;42.520;27.448;2023-05-08T12:25:08;101320.41;;;27.60;39.28
8575;BME280;4325;42.520;27.448;2023-05-08T12:27:36;101326.34;;;26.81;41.30
8575;BME280;4325;42.520;27.448;2023-05-08T12:30:07;101325.41;;;27.12;41.62
8575;BME280;4325;42.520;27.448;2023-05-08T12:32:38;101319.22;;;27.41;40.24
8575;BME280;4325;42.520;27.448;2023-05-08T12:35:06;101315.72;;;27.90;39.88
8575;BME280;4325;42.520;27.448;2023-05-08T12:37:34;101305.31;;;28.92;38.54
8575;BME280;4325;42.520;27.448;2023-05-08T12:40:01;101316.03;;;29.75;36.68
8575;BME280;4325;42.520;27.448;2023-05-08T12:42:41;101315.78;;;30.89;34.66
8575;BME280;4325;42.520;27.448;2023-05-08T12:45:08;101313.94;;;31.21;33.45
8575;BME280;4325;42.520;27.448;2023-05-08T12:47:46;101312.03;;;30.71;34.46
8575;BME280;4325;42.520;27.448;2023-05-08T12:50:16;101309.66;;;31.70;32.77
8575;BME280;4325;42.520;27.448;2023-05-08T12:52:45;101304.38;;;32.88;31.19
8575;BME280;4325;42.520;27.448;2023-05-08T12:55:19;101300.13;;;33.42;29.73
8575;BME280;4325;42.520;27.448;2023-05-08T12:57:47;101302.34;;;33.10;30.23
8575;BME280;4325;42.520;27.448;2023-05-08T13:00:15;101310.94;;;32.68;30.60
8575;BME280;4325;42.520;27.448;2023-05-08T13:02:52;101308.94;;;32.29;30.94
8575;BME280;4325;42.520;27.448;2023-05-08T13:05:20;101307.69;;;31.95;31.84
8575;BME280;4325;42.520;27.448;2023-05-08T13:07:47;101298.34;;;31.91;31.95
8575;BME280;4325;42.520;27.448;2023-05-08T13:10:16;101302.69;;;31.43;32.87
8575;BME280;4325;42.520;27.448;2023-05-08T13:12:44;101312.97;;;32.14;31.93
8575;BME280;4325;42.520;27.448;2023-05-08T13:15:11;101312.56;;;32.40;30.94
8575;BME280;4325;42.520;27.448;2023-05-08T13:17:38;101304.28;;;31.29;31.91